Time;durP1;ratioP1;P1;durP2;ratioP2;P2;SDS_P1;SDS_P2;PMS_P1;PMS_P2;Temp;Humidity;BMP_temperature;BMP_pressure;BME280_temperature;BME280_humidity;BME280_pressure;Samples;Min_cycle;Max_cycle;Signal;HPM_P1;HPM_P2
2024/02/20 00:00:28;;;;;;;10.00;7.10;;;;;;;-0.67;84.70;102133.91;104908;1266;59302;-77
2024/02/20 00:02:55;;;;;;;13.40;8.80;;;;;;;-0.68;85.19;102133.73;104850;1268;60435;-77
2024/02/20 00:05:23;;;;;;;8.70;6.40;;;;;;;-0.70;85.75;102133.54;104965;1267;70986;-78
2024/02/20 00:07:50;;;;;;;9.90;7.70;;;;;;;-0.69;86.39;102135.25;104912;1267;63781;-78
2024/02/20 00:10:19;;;;;;;11.60;9.00;;;;;;;-0.69;86.97;102138.37;105481;1266;72445;-78
2024/02/20 00:12:47;;;;;;;12.30;6.60;;;;;;;-0.69;87.18;102140.41;105843;1269;182894;-77
2024/02/20 00:15:15;;;;;;;9.40;6.00;;;;;;;-0.69;88.74;102142.98;105250;1263;59365;-75
2024/02/20 00:17:44;;;;;;;8.10;5.50;;;;;;;-0.66;89.06;102138.56;105011;1269;71096;-76
2024/02/20 00:20:13;;;;;;;11.70;6.30;;;;;;;-0.63;89.17;102132.93;105763;1254;63505;-76
2024/02/20 00:22:40;;;;;;;7.40;5.10;;;;;;;-0.62;88.93;102130.54;105727;1259;72406;-77
2024/02/20 00:25:08;;;;;;;9.40;5.90;;;;;;;-0.64;88.65;102127.95;105837;1254;59739;-77
2024/02/20 00:27:36;;;;;;;8.60;6.00;;;;;;;-0.67;89.01;102133.92;105857;1252;60214;-75
2024/02/20 00:30:06;;;;;;;10.20;5.90;;;;;;;-0.67;89.58;102134.94;105787;1258;73649;-76
2024/02/20 00:32:33;;;;;;;8.20;5.40;;;;;;;-0.65;89.54;102131.17;105820;1252;62407;-77
2024/02/20 00:35:01;;;;;;;7.70;5.50;;;;;;;-0.65;88.68;102131.02;105732;1258;72694;-76
2024/02/20 00:37:30;;;;;;;9.40;5.00;;;;;;;-0.66;89.29;102135.13;105757;1254;59723;-78
2024/02/20 00:39:58;;;;;;;9.60;6.20;;;;;;;-0.67;90.53;102133.23;105777;1254;59740;-76
2024/02/20 00:42:25;;;;;;;7.10;5.00;;;;;;;-0.67;91.24;102130.30;105686;1259;73108;-75
2024/02/20 00:44:54;;;;;;;15.70;7.60;;;;;;;-0.66;94.09;102128.95;105696;1254;62452;-75
2024/02/20 00:47:22;;;;;;;13.70;9.20;;;;;;;-0.65;99.78;102127.41;105746;1254;71630;-78
2024/02/20 00:49:51;;;;;;;14.50;9.20;;;;;;;-0.63;100.00;102131.20;105846;1254;59746;-74
2024/02/20 00:52:18;;;;;;;16.40;9.80;;;;;;;-0.61;100.00;102139.30;105697;1254;60534;-74
2024/02/20 00:54:46;;;;;;;17.50;11.00;;;;;;;-0.61;100.00;102139.46;105750;1254;72987;-76
2024/02/20 00:57:14;;;;;;;16.80;11.00;;;;;;;-0.61;100.00;102138.45;105780;1252;62517;-75
2024/02/20 00:59:42;;;;;;;21.70;12.60;;;;;;;-0.61;100.00;102138.78;105750;1259;72628;-76
2024/02/20 01:02:12;;;;;;;32.70;14.50;;;;;;;-0.60;100.00;102140.86;105806;1259;60620;-75
2024/02/20 01:04:40;;;;;;;24.40;13.50;;;;;;;-0.59;100.00;102139.84;105928;1254;59580;-75
2024/02/20 01:07:08;;;;;;;27.10;13.10;;;;;;;-0.58;100.00;102137.45;105777;1258;73127;-76
2024/02/20 01:09:37;;;;;;;24.30;14.10;;;;;;;-0.57;100.00;102138.31;105775;1254;62263;-76
2024/02/20 01:12:05;;;;;;;20.90;13.00;;;;;;;-0.57;100.00;102134.19;105838;1254;71470;-76
2024/02/20 01:14:33;;;;;;;25.60;13.90;;;;;;;-0.59;100.00;102137.09;105894;1256;60084;-76
2024/02/20 01:17:00;;;;;;;26.50;13.20;;;;;;;-0.59;100.00;102134.00;105752;1258;59583;-76
2024/02/20 01:19:28;;;;;;;25.80;12.90;;;;;;;-0.59;100.00;102137.43;105762;1254;71897;-75
2024/02/20 01:21:58;;;;;;;20.70;10.90;;;;;;;-0.59;100.00;102139.50;105762;1258;64368;-75
2024/02/20 01:24:25;;;;;;;16.10;9.60;;;;;;;-0.61;100.00;102136.73;105761;1254;71237;-75
2024/02/20 01:26:54;;;;;;;19.90;12.00;;;;;;;-0.62;100.00;102131.39;105680;1255;60063;-75
2024/02/20 01:29:22;;;;;;;19.10;11.20;;;;;;;-0.64;100.00;102128.80;105673;1259;59669;-76
2024/02/20 01:31:50;;;;;;;12.10;8.50;;;;;;;-0.63;100.00;102132.92;105720;1254;71970;-77
2024/02/20 01:34:18;;;;;;;18.80;10.10;;;;;;;-0.60;100.00;102130.56;105746;1259;62287;-77
2024/02/20 01:36:46;;;;;;;17.20;10.10;;;;;;;-0.57;100.00;102127.14;105795;1254;71358;-75
2024/02/20 01:39:13;;;;;;;20.60;11.00;;;;;;;-0.58;100.00;102126.79;105710;1255;59730;-76
2024/02/20 01:41:43;;;;;;;23.90;12.70;;;;;;;-0.59;100.00;102124.90;105634;1254;59890;-76
2024/02/20 01:44:11;;;;;;;13.00;8.60;;;;;;;-0.59;100.00;102124.73;105741;1254;72222;-76
2024/02/20 01:46:38;;;;;;;12.20;7.00;;;;;;;-0.58;100.00;102122.50;105660;1258;62666;-78
2024/02/20 01:49:06;;;;;;;8.60;4.80;;;;;;;-0.56;100.00;102123.20;105689;1258;71552;-77
2024/02/20 01:51:35;;;;;;;10.20;5.50;;;;;;;-0.55;100.00;102125.29;105799;1254;59637;-76
2024/02/20 01:54:03;;;;;;;10.30;5.80;;;;;;;-0.53;100.00;102122.55;106065;1254;59635;-76
2024/02/20 01:56:33;;;;;;;9.70;5.70;;;;;;;-0.50;100.00;102120.86;105880;1260;73137;-77
2024/02/20 01:59:01;;;;;;;8.50;5.20;;;;;;;-0.49;100.00;102125.86;105660;1254;63601;-76
2024/02/20 02:01:29;;;;;;;6.80;3.90;;;;;;;-0.47;100.00;102123.29;105749;1254;71419;-76
2024/02/20 02:03:57;;;;;;;7.60;5.30;;;;;;;-0.50;100.00;102122.41;105714;1254;59656;-74
2024/02/20 02:06:28;;;;;;;8.50;5.50;;;;;;;-0.53;100.00;102120.32;105749;1259;59557;-77
2024/02/20 02:08:56;;;;;;;9.40;6.00;;;;;;;-0.53;99.98;102122.91;105756;1259;71185;-77
2024/02/20 02:11:24;;;;;;;12.20;6.50;;;;;;;-0.53;99.92;102126.16;105753;1254;61892;-77
2024/02/20 02:13:52;;;;;;;7.30;5.20;;;;;;;-0.50;99.74;102123.27;105619;1254;71875;-78
2024/02/20 02:16:20;;;;;;;9.70;5.30;;;;;;;-0.48;99.35;102125.70;105767;1259;59759;-77
2024/02/20 02:18:49;;;;;;;7.20;4.90;;;;;;;-0.47;98.42;102122.45;105769;1254;59759;-76
2024/02/20 02:21:18;;;;;;;7.70;5.20;;;;;;;-0.44;97.94;102122.81;105741;1259;72151;-77
2024/02/20 02:23:46;;;;;;;11.10;5.70;;;;;;;-0.42;96.88;102126.95;105741;1254;62387;-75
2024/02/20 02:26:14;;;;;;;8.10;5.10;;;;;;;-0.38;96.76;102124.93;105683;1260;73201;-78
2024/02/20 02:28:47;;;;;;;7.90;4.90;;;;;;;-0.32;97.19;102121.55;105740;1254;59775;-76
2024/02/20 02:31:16;;;;;;;8.40;5.00;;;;;;;-0.27;95.29;102123.65;105760;1254;59883;-76
2024/02/20 02:33:48;;;;;;;6.30;4.60;;;;;;;-0.28;94.72;102123.48;105694;1254;71805;-77
2024/02/20 02:36:16;;;;;;;8.50;5.30;;;;;;;-0.28;93.90;102124.34;105743;1254;62942;-76
2024/02/20 02:38:43;;;;;;;5.60;4.30;;;;;;;-0.26;93.72;102121.95;105771;1254;71714;-77
2024/02/20 02:41:14;;;;;;;9.50;5.30;;;;;;;-0.24;92.53;102123.52;105704;1254;59833;-77
2024/02/20 02:43:42;;;;;;;9.10;5.00;;;;;;;-0.23;92.46;102120.44;105715;1254;59631;-76
2024/02/20 02:46:12;;;;;;;7.90;4.30;;;;;;;-0.21;92.36;102117.36;105737;1259;73718;-76
2024/02/20 02:48:40;;;;;;;8.00;4.80;;;;;;;-0.18;92.12;102117.71;105729;1254;62512;-76
2024/02/20 02:51:08;;;;;;;9.10;5.20;;;;;;;-0.18;90.45;102120.29;105744;1254;72733;-76
2024/02/20 02:53:36;;;;;;;8.60;6.50;;;;;;;-0.17;90.34;102120.98;105759;1253;59657;-76
2024/02/20 02:56:08;;;;;;;9.90;7.60;;;;;;;-0.19;90.25;102119.61;105765;1254;59549;-76
2024/02/20 02:58:37;;;;;;;7.00;5.80;;;;;;;-0.18;90.04;102113.94;105746;1258;71802;-76
2024/02/20 03:01:04;;;;;;;5.60;5.00;;;;;;;-0.17;89.40;102115.33;105715;1257;63654;-77
2024/02/20 03:03:32;;;;;;;4.50;3.20;;;;;;;-0.14;88.50;102119.30;105875;1258;72677;-75
2024/02/20 03:06:08;;;;;;;4.00;3.50;;;;;;;-0.14;85.51;102120.67;105752;1254;59641;-76
2024/02/20 03:08:38;;;;;;;7.10;3.50;;;;;;;-0.16;83.82;102119.11;105756;1254;59746;-75
2024/02/20 03:11:05;;;;;;;3.70;3.00;;;;;;;-0.18;83.06;102120.98;105734;1260;72041;-75
2024/02/20 03:13:33;;;;;;;5.30;2.90;;;;;;;-0.20;82.54;102123.23;105896;1254;62815;-76
2024/02/20 03:16:02;;;;;;;4.20;3.00;;;;;;;-0.21;82.77;102121.65;107248;1254;72738;-73
2024/02/20 03:18:32;;;;;;;3.90;3.00;;;;;;;-0.19;82.75;102118.23;108164;1253;59816;-74
2024/02/20 03:21:02;;;;;;;5.90;3.10;;;;;;;-0.17;83.12;102121.16;106625;1254;59746;-75
2024/02/20 03:23:31;;;;;;;3.50;3.10;;;;;;;-0.16;82.12;102118.25;105729;1254;73046;-76
2024/02/20 03:25:59;;;;;;;3.40;2.90;;;;;;;-0.15;81.10;102114.66;105789;1258;63691;-76
2024/02/20 03:28:26;;;;;;;4.00;2.80;;;;;;;-0.15;79.41;102118.95;105757;1254;71484;-74
2024/02/20 03:30:54;;;;;;;4.10;2.90;;;;;;;-0.20;78.01;102118.56;105815;1254;59640;-76
2024/02/20 03:33:23;;;;;;;4.30;2.70;;;;;;;-0.23;78.03;102118.20;105871;1253;60025;-75
2024/02/20 03:35:52;;;;;;;4.00;2.70;;;;;;;-0.25;77.68;102117.66;105781;1257;71026;-77
2024/02/20 03:38:20;;;;;;;5.40;3.00;;;;;;;-0.26;77.77;102115.08;105789;1254;61971;-76
2024/02/20 03:40:48;;;;;;;4.70;2.70;;;;;;;-0.27;77.79;102114.39;105744;1259;71657;-77
2024/02/20 03:43:15;;;;;;;4.20;2.80;;;;;;;-0.25;76.45;102116.11;105788;1254;59730;-76
2024/02/20 03:45:43;;;;;;;2.90;2.50;;;;;;;-0.26;75.60;102115.60;106031;1254;59660;-75
2024/02/20 03:48:12;;;;;;;5.90;2.00;;;;;;;-0.25;75.41;102111.83;106097;1257;71504;-76
2024/02/20 03:50:39;;;;;;;4.00;2.30;;;;;;;-0.26;73.63;102114.55;105754;1254;62417;-76
2024/02/20 03:53:07;;;;;;;5.40;2.60;;;;;;;-0.28;72.12;102110.60;105796;1254;71850;-76
2024/02/20 03:55:36;;;;;;;4.70;2.70;;;;;;;-0.29;73.00;102107.66;105839;1258;59745;-78
2024/02/20 03:58:04;;;;;;;2.60;2.40;;;;;;;-0.27;73.28;102108.55;105849;1254;60112;-78
2024/02/20 04:00:32;;;;;;;4.80;3.20;;;;;;;-0.25;72.48;102109.23;105791;1253;71605;-76
2024/02/20 04:03:00;;;;;;;4.50;3.50;;;;;;;-0.26;72.49;102114.21;105762;1253;63576;-74
2024/02/20 04:05:28;;;;;;;3.60;2.60;;;;;;;-0.27;72.68;102122.96;105815;1257;72662;-76
2024/02/20 04:07:57;;;;;;;6.30;3.40;;;;;;;-0.28;72.09;102126.91;105826;1254;60491;-77
2024/02/20 04:10:25;;;;;;;3.60;3.10;;;;;;;-0.28;72.24;102126.05;105819;1259;60387;-75
2024/02/20 04:12:54;;;;;;;3.20;2.90;;;;;;;-0.28;73.14;102123.99;105887;1254;73484;-77
2024/02/20 04:15:21;;;;;;;5.50;3.40;;;;;;;-0.27;74.06;102117.47;105787;1255;63734;-76
2024/02/20 04:17:49;;;;;;;5.50;2.60;;;;;;;-0.27;74.52;102119.54;105756;1254;71600;-76
2024/02/20 04:20:19;;;;;;;4.50;3.20;;;;;;;-0.28;75.72;102125.37;105827;1254;60489;-76
2024/02/20 04:22:47;;;;;;;5.60;2.90;;;;;;;-0.28;75.82;102127.27;105785;1254;60707;-76
2024/02/20 04:25:17;;;;;;;3.10;2.80;;;;;;;-0.30;75.59;102128.63;105718;1258;73813;-75
2024/02/20 04:27:47;;;;;;;3.60;3.20;;;;;;;-0.33;75.68;102133.23;105794;1259;62385;-77
2024/02/20 04:30:16;;;;;;;6.10;3.70;;;;;;;-0.37;76.31;102129.23;105832;1254;71388;-77
2024/02/20 04:32:43;;;;;;;4.00;3.60;;;;;;;-0.37;77.48;102132.84;105760;1254;61236;-78
2024/02/20 04:35:10;;;;;;;5.10;3.10;;;;;;;-0.35;77.91;102130.80;105773;1253;60470;-78
2024/02/20 04:37:38;;;;;;;3.80;3.30;;;;;;;-0.34;77.93;102133.91;105793;1254;72676;-76
2024/02/20 04:40:07;;;;;;;3.40;3.10;;;;;;;-0.32;78.33;102134.27;105842;1254;64489;-74
2024/02/20 04:42:35;;;;;;;3.10;2.80;;;;;;;-0.30;77.65;102136.00;105864;1259;73328;-76
2024/02/20 04:45:05;;;;;;;3.10;2.70;;;;;;;-0.28;76.93;102142.38;106151;1254;60504;-78
2024/02/20 04:47:32;;;;;;;3.40;2.80;;;;;;;-0.29;76.11;102143.05;105917;1254;60552;-77
2024/02/20 04:50:00;;;;;;;3.70;2.40;;;;;;;-0.31;75.65;102142.34;105818;1258;72102;-76
2024/02/20 04:52:28;;;;;;;2.90;2.60;;;;;;;-0.32;75.50;102141.83;105864;1254;62614;-76
2024/02/20 04:54:56;;;;;;;4.30;2.70;;;;;;;-0.32;75.31;102144.23;105791;1258;71912;-77
2024/02/20 04:57:23;;;;;;;4.00;2.50;;;;;;;-0.31;73.95;102144.93;105694;1257;60553;-77
2024/02/20 04:59:51;;;;;;;2.80;2.30;;;;;;;-0.32;72.28;102143.72;105732;1254;60442;-78
2024/02/20 05:02:19;;;;;;;2.50;2.40;;;;;;;-0.33;73.08;102141.66;105736;1260;72541;-78
2024/02/20 05:04:46;;;;;;;3.60;2.60;;;;;;;-0.32;72.59;102145.95;105783;1253;62321;-77
2024/02/20 05:07:14;;;;;;;4.00;3.50;;;;;;;-0.30;72.20;102142.20;105655;1257;71583;-77
2024/02/20 05:09:42;;;;;;;5.40;3.10;;;;;;;-0.27;71.69;102147.89;105815;1254;60822;-77
2024/02/20 05:12:10;;;;;;;3.70;2.90;;;;;;;-0.25;71.22;102150.66;105812;1259;60372;-75
2024/02/20 05:14:38;;;;;;;5.50;3.50;;;;;;;-0.22;71.26;102154.83;105902;1260;73884;-77
2024/02/20 05:17:05;;;;;;;5.80;4.00;;;;;;;-0.21;70.17;102156.54;105938;1260;62306;-77
2024/02/20 05:19:32;;;;;;;6.80;3.80;;;;;;;-0.23;69.34;102151.71;105840;1257;71409;-77
2024/02/20 05:22:01;;;;;;;6.30;4.00;;;;;;;-0.22;70.50;102151.89;105961;1254;60485;-77
2024/02/20 05:24:30;;;;;;;8.10;4.60;;;;;;;-0.17;70.70;102148.16;105925;1254;60527;-77
2024/02/20 05:26:57;;;;;;;4.10;3.70;;;;;;;-0.12;69.56;102151.63;105906;1254;73941;-76
2024/02/20 05:29:25;;;;;;;11.00;4.40;;;;;;;-0.09;68.66;102154.23;105909;1259;61431;-78
2024/02/20 05:31:56;;;;;;;6.90;3.90;;;;;;;-0.06;67.62;102159.42;105956;1259;72699;-77
2024/02/20 05:34:24;;;;;;;5.60;3.30;;;;;;;-0.02;67.42;102164.95;106314;1258;60450;-75
2024/02/20 05:36:52;;;;;;;6.60;4.60;;;;;;;-0.01;64.83;102164.46;107700;1254;60359;-75
2024/02/20 05:39:19;;;;;;;5.00;3.50;;;;;;;-0.01;64.87;102167.21;108588;1253;72683;-75
2024/02/20 05:41:47;;;;;;;8.00;4.40;;;;;;;-0.01;63.48;102165.67;108379;1252;62259;-77
2024/02/20 05:44:14;;;;;;;5.30;3.60;;;;;;;-0.02;64.63;102172.70;109194;1254;72894;-75
2024/02/20 05:46:44;;;;;;;6.50;4.10;;;;;;;0.00;65.05;102174.43;109312;1257;60466;-76
2024/02/20 05:49:12;;;;;;;10.50;4.30;;;;;;;0.03;63.64;102168.09;109276;1253;60527;-76
2024/02/20 05:51:40;;;;;;;7.10;4.30;;;;;;;0.05;62.30;102172.75;108006;1254;73972;-77
2024/02/20 05:54:08;;;;;;;10.50;5.70;;;;;;;0.05;62.32;102172.08;106488;1257;62431;-77
2024/02/20 05:56:36;;;;;;;6.70;5.00;;;;;;;0.06;61.77;102175.00;106712;1258;71298;-76
2024/02/20 05:59:05;;;;;;;7.20;3.90;;;;;;;0.06;61.33;102176.20;106361;1254;60531;-77
2024/02/20 06:01:32;;;;;;;6.10;3.70;;;;;;;0.05;60.44;102172.76;106149;1259;60479;-76
2024/02/20 06:04:04;;;;;;;5.40;3.80;;;;;;;0.03;60.49;102175.16;106295;1254;76085;-76
2024/02/20 06:06:34;;;;;;;9.30;3.80;;;;;;;0.02;59.76;102178.91;106037;1255;62811;-77
2024/02/20 06:09:03;;;;;;;9.80;3.80;;;;;;;0.01;59.79;102175.81;105953;1257;71879;-78
2024/02/20 06:11:30;;;;;;;10.90;4.50;;;;;;;0.03;60.33;102171.89;105813;1257;60556;-79
2024/02/20 06:13:58;;;;;;;4.70;3.30;;;;;;;0.06;60.06;102174.14;105802;1257;60535;-79
2024/02/20 06:16:25;;;;;;;4.60;3.10;;;;;;;0.08;59.57;102180.86;105888;1254;72629;-77
2024/02/20 06:18:54;;;;;;;6.10;3.40;;;;;;;0.11;58.65;102177.80;105867;1257;64172;-78
2024/02/20 06:21:23;;;;;;;5.60;3.80;;;;;;;0.13;58.61;102177.46;105731;1257;72726;-78
2024/02/20 06:23:51;;;;;;;4.10;3.00;;;;;;;0.15;58.21;102177.13;105806;1259;60562;-78
2024/02/20 06:26:18;;;;;;;5.70;3.20;;;;;;;0.16;58.12;102181.45;105786;1254;60533;-78
2024/02/20 06:28:47;;;;;;;6.40;3.50;;;;;;;0.15;57.80;102179.89;105725;1257;74213;-79
2024/02/20 06:31:16;;;;;;;9.50;4.40;;;;;;;0.15;57.90;102186.09;105825;1257;62516;-79
2024/02/20 06:33:44;;;;;;;8.50;4.20;;;;;;;0.14;57.89;102188.65;105858;1257;72908;-78
2024/02/20 06:36:13;;;;;;;3.70;3.10;;;;;;;0.11;57.89;102191.73;105824;1259;60475;-78
2024/02/20 06:38:41;;;;;;;3.90;3.20;;;;;;;0.10;58.66;102190.34;106010;1257;60463;-79
2024/02/20 06:41:09;;;;;;;5.30;4.30;;;;;;;0.11;58.49;102193.44;105811;1255;73926;-79
2024/02/20 06:43:37;;;;;;;7.60;3.70;;;;;;;0.12;58.71;102190.88;105954;1252;62499;-79
2024/02/20 06:46:05;;;;;;;6.50;3.60;;;;;;;0.12;59.29;102189.67;105964;1257;70667;-79
2024/02/20 06:48:32;;;;;;;4.30;3.40;;;;;;;0.14;60.01;102187.45;106017;1260;61103;-78
2024/02/20 06:51:01;;;;;;;5.90;3.90;;;;;;;0.21;60.32;102192.83;105934;1259;60570;-79
2024/02/20 06:53:28;;;;;;;6.10;4.60;;;;;;;0.24;60.05;102195.45;105806;1254;73756;-78
2024/02/20 06:55:56;;;;;;;6.70;5.30;;;;;;;0.26;60.78;102196.48;105837;1259;63571;-79
2024/02/20 06:58:25;;;;;;;5.40;4.00;;;;;;;0.27;60.78;102201.50;105894;1267;73401;-78
2024/02/20 07:00:53;;;;;;;4.00;3.20;;;;;;;0.26;60.25;102199.77;105974;1259;60558;-79
2024/02/20 07:03:21;;;;;;;4.20;3.40;;;;;;;0.23;60.58;102196.80;105870;1260;60527;-78
2024/02/20 07:05:50;;;;;;;5.10;3.50;;;;;;;0.25;60.37;102197.00;105893;1257;72704;-79
2024/02/20 07:08:18;;;;;;;6.00;3.60;;;;;;;0.26;60.62;102199.41;106024;1257;62480;-78
2024/02/20 07:10:46;;;;;;;5.30;3.20;;;;;;;0.28;60.73;102200.63;105935;1258;73086;-77
2024/02/20 07:13:14;;;;;;;4.20;2.80;;;;;;;0.29;60.67;102198.56;105971;1254;60639;-78
2024/02/20 07:15:41;;;;;;;5.30;3.90;;;;;;;0.27;60.46;102195.46;106027;1255;60553;-77
2024/02/20 07:18:10;;;;;;;4.80;3.80;;;;;;;0.26;60.66;102195.28;107168;1260;73864;-74
2024/02/20 07:20:38;;;;;;;5.30;3.90;;;;;;;0.27;60.63;102194.95;108625;1258;62521;-77
2024/02/20 07:23:06;;;;;;;5.70;3.50;;;;;;;0.29;60.44;102192.21;107256;1257;72623;-78
2024/02/20 07:25:34;;;;;;;6.30;4.10;;;;;;;0.30;60.72;102188.27;106196;1254;60553;-77
2024/02/20 07:28:02;;;;;;;5.90;3.60;;;;;;;0.30;60.99;102190.68;107496;1254;60367;-77
2024/02/20 07:30:32;;;;;;;7.30;5.00;;;;;;;0.32;61.32;102191.73;108076;1253;72374;-77
2024/02/20 07:33:00;;;;;;;4.80;3.40;;;;;;;0.36;62.02;102191.23;105989;1257;64190;-78
2024/02/20 07:35:28;;;;;;;4.70;3.30;;;;;;;0.43;61.05;102193.70;105936;1258;71233;-77
2024/02/20 07:37:56;;;;;;;4.90;3.80;;;;;;;0.47;60.28;102191.15;106232;1257;60485;-76
2024/02/20 07:40:23;;;;;;;8.10;3.70;;;;;;;0.48;59.89;102185.30;106338;1257;60936;-77
2024/02/20 07:42:52;;;;;;;6.40;4.10;;;;;;;0.53;60.43;102187.91;106376;1252;72864;-75
2024/02/20 07:45:19;;;;;;;6.50;3.60;;;;;;;0.60;59.65;102189.35;108111;1257;62676;-78
2024/02/20 07:47:47;;;;;;;4.80;2.60;;;;;;;0.65;58.21;102188.52;108507;1257;71172;-76
2024/02/20 07:50:16;;;;;;;2.70;2.00;;;;;;;0.69;55.12;102187.52;108559;1257;61537;-77
2024/02/20 07:52:45;;;;;;;4.10;2.90;;;;;;;0.67;54.55;102182.84;108652;1252;60803;-78
2024/02/20 07:55:15;;;;;;;6.00;3.40;;;;;;;0.67;54.48;102180.77;108812;1253;72656;-76
2024/02/20 07:57:42;;;;;;;9.40;4.10;;;;;;;0.70;55.14;102179.77;109038;1253;62584;-77
2024/02/20 08:00:12;;;;;;;6.70;3.10;;;;;;;0.78;54.70;102178.61;109212;1254;73124;-77
2024/02/20 08:02:41;;;;;;;8.60;3.90;;;;;;;0.91;53.70;102184.02;109048;1257;60520;-77
2024/02/20 08:05:09;;;;;;;6.30;3.20;;;;;;;1.00;53.58;102175.80;107228;1254;60448;-75
2024/02/20 08:07:38;;;;;;;9.30;3.30;;;;;;;1.12;52.84;102178.63;106956;1254;73597;-77
2024/02/20 08:10:08;;;;;;;4.60;3.10;;;;;;;1.22;52.34;102174.86;106723;1254;62645;-76
2024/02/20 08:12:35;;;;;;;2.90;2.50;;;;;;;1.31;52.04;102178.34;106816;1254;71272;-75
2024/02/20 08:15:03;;;;;;;5.10;3.50;;;;;;;1.40;51.53;102174.40;106464;1254;60489;-76
2024/02/20 08:17:31;;;;;;;8.20;3.90;;;;;;;1.48;51.87;102178.38;106412;1255;60482;-77
2024/02/20 08:19:59;;;;;;;5.70;3.30;;;;;;;1.60;51.29;102184.27;106216;1255;73840;-77
2024/02/20 08:22:26;;;;;;;4.10;2.60;;;;;;;1.70;51.13;102187.58;106073;1254;64482;-77
2024/02/20 08:24:54;;;;;;;5.00;3.30;;;;;;;1.74;49.61;102196.03;105993;1260;75353;-76
2024/02/20 08:27:22;;;;;;;5.80;3.50;;;;;;;1.62;49.26;102192.21;105996;1255;60514;-76
2024/02/20 08:29:50;;;;;;;4.60;4.00;;;;;;;1.49;49.98;102190.45;105865;1258;61029;-78
2024/02/20 08:32:18;;;;;;;3.90;3.40;;;;;;;1.37;50.68;102186.27;106026;1255;73942;-77
2024/02/20 08:34:45;;;;;;;5.50;3.90;;;;;;;1.33;51.90;102186.79;105944;1258;62428;-76
2024/02/20 08:37:13;;;;;;;4.70;3.90;;;;;;;1.39;52.74;102186.11;105946;1257;72403;-76
2024/02/20 08:39:44;;;;;;;4.30;3.90;;;;;;;1.43;52.02;102179.75;105959;1257;60421;-76
2024/02/20 08:42:12;;;;;;;8.20;4.00;;;;;;;1.39;51.76;102179.74;105960;1257;60523;-78
2024/02/20 08:44:40;;;;;;;5.30;4.10;;;;;;;1.41;52.79;102178.89;105966;1257;73112;-76
2024/02/20 08:47:08;;;;;;;4.90;4.20;;;;;;;1.49;53.85;102183.91;106210;1254;63977;-76
2024/02/20 08:49:36;;;;;;;7.20;5.50;;;;;;;1.56;54.02;102188.23;106002;1258;73583;-77
2024/02/20 08:52:04;;;;;;;6.40;3.60;;;;;;;1.60;54.38;102188.77;105931;1257;60552;-76
2024/02/20 08:54:32;;;;;;;8.20;4.30;;;;;;;1.59;53.96;102191.51;105963;1257;61681;-76
2024/02/20 08:57:00;;;;;;;6.10;4.30;;;;;;;1.56;54.73;102190.13;105883;1253;74358;-77
2024/02/20 08:59:27;;;;;;;6.70;4.70;;;;;;;1.58;53.88;102194.79;105952;1257;62782;-76
2024/02/20 09:01:55;;;;;;;7.40;4.60;;;;;;;1.53;52.88;102194.77;105840;1267;73729;-76
2024/02/20 09:04:26;;;;;;;7.30;4.60;;;;;;;1.46;53.58;102196.48;105881;1254;60412;-75
2024/02/20 09:06:54;;;;;;;7.70;4.90;;;;;;;1.39;54.76;102197.48;105896;1257;60429;-77
2024/02/20 09:09:22;;;;;;;5.40;4.70;;;;;;;1.36;56.19;102194.90;106009;1257;73655;-77
2024/02/20 09:11:50;;;;;;;5.60;4.10;;;;;;;1.38;57.04;102195.41;105891;1267;64385;-78
2024/02/20 09:14:19;;;;;;;6.60;4.80;;;;;;;1.41;57.12;102189.73;105890;1254;73757;-77
2024/02/20 09:16:47;;;;;;;6.20;4.50;;;;;;;1.46;57.24;102194.06;105898;1255;60499;-77
2024/02/20 09:22:42;;;;;;;7.50;5.10;;;;;;;1.62;58.06;102177.05;105837;1263;73364;-77
2024/02/20 09:25:10;;;;;;;5.90;4.50;;;;;;;1.69;58.77;102180.34;105883;1257;62233;-77
2024/02/20 09:27:38;;;;;;;6.60;5.10;;;;;;;1.75;58.86;102175.87;105838;1254;73045;-77
2024/02/20 09:30:06;;;;;;;6.80;5.50;;;;;;;1.79;58.70;102173.80;105925;1254;60581;-78
2024/02/20 09:32:34;;;;;;;4.70;4.20;;;;;;;1.85;58.68;102172.95;105862;1257;60517;-76
2024/02/20 09:35:02;;;;;;;7.30;5.40;;;;;;;1.87;55.93;102167.61;105803;1257;75181;-76
2024/02/20 09:37:29;;;;;;;6.10;4.20;;;;;;;1.82;54.17;102162.09;105944;1257;64486;-78
2024/02/20 09:39:57;;;;;;;5.40;4.00;;;;;;;1.77;54.21;102160.52;105964;1254;72630;-77
2024/02/20 09:42:27;;;;;;;6.60;5.30;;;;;;;1.77;54.02;102159.48;105932;1258;60556;-78
2024/02/20 09:44:55;;;;;;;9.50;4.40;;;;;;;1.77;53.40;102163.63;105950;1257;60459;-77
2024/02/20 09:47:23;;;;;;;4.40;3.80;;;;;;;1.77;52.82;102165.86;105858;1254;74917;-76
2024/02/20 09:49:53;;;;;;;6.70;4.00;;;;;;;1.72;52.43;102160.16;105914;1254;64231;-77
2024/02/20 09:52:20;;;;;;;6.80;4.30;;;;;;;1.65;52.74;102155.16;106095;1260;75567;-78
2024/02/20 09:54:48;;;;;;;9.40;5.10;;;;;;;1.59;53.15;102152.91;105840;1254;60904;-77
2024/02/20 09:57:17;;;;;;;5.50;4.50;;;;;;;1.58;53.83;102152.55;105903;1258;60706;-76
2024/02/20 09:59:45;;;;;;;8.50;4.60;;;;;;;1.65;54.51;102154.13;105863;1257;76347;-75
2024/02/20 10:02:20;;;;;;;5.00;4.10;;;;;;;1.70;53.39;102159.13;106371;1257;64436;-77
2024/02/20 10:04:48;;;;;;;5.50;3.40;;;;;;;1.62;52.42;102159.30;106712;1260;74661;-78
2024/02/20 10:07:20;;;;;;;5.00;4.40;;;;;;;1.47;53.14;102149.27;106031;1257;60565;-78
2024/02/20 10:09:48;;;;;;;7.60;5.20;;;;;;;1.42;54.67;102144.77;105984;1254;61143;-79
2024/02/20 10:12:21;;;;;;;7.60;5.40;;;;;;;1.45;55.43;102142.36;106110;1259;73537;-77
2024/02/20 10:14:49;;;;;;;9.40;6.50;;;;;;;1.53;56.27;102141.17;105963;1259;64060;-78
2024/02/20 10:17:17;;;;;;;5.30;4.70;;;;;;;1.62;55.86;102141.02;105922;1252;72648;-77
2024/02/20 10:19:45;;;;;;;5.20;4.30;;;;;;;1.70;53.58;102138.63;105902;1259;60552;-77
2024/02/20 10:22:23;;;;;;;7.60;4.40;;;;;;;1.73;52.74;102134.14;106447;1254;60505;-77
2024/02/20 10:24:51;;;;;;;5.10;4.40;;;;;;;1.78;53.07;102132.42;106106;1254;75592;-77
2024/02/20 10:27:18;;;;;;;4.10;3.20;;;;;;;1.83;51.97;102135.52;105819;1260;64720;-77
2024/02/20 10:29:46;;;;;;;5.10;4.00;;;;;;;1.77;51.41;102131.04;105915;1254;71888;-77
2024/02/20 10:32:14;;;;;;;6.70;5.00;;;;;;;1.67;51.90;102127.93;105864;1255;60524;-78
2024/02/20 10:34:44;;;;;;;5.30;4.40;;;;;;;1.62;52.89;102126.70;105853;1255;60485;-78
2024/02/20 10:37:12;;;;;;;4.70;4.10;;;;;;;1.64;52.43;102127.41;105905;1254;73659;-78
2024/02/20 10:39:40;;;;;;;6.70;3.80;;;;;;;1.65;51.92;102125.68;105781;1259;63605;-78
2024/02/20 10:42:08;;;;;;;6.10;4.10;;;;;;;1.67;51.86;102125.67;106029;1254;71313;-77
2024/02/20 10:44:36;;;;;;;6.80;4.40;;;;;;;1.72;51.06;102118.44;105923;1258;60469;-77
2024/02/20 10:47:03;;;;;;;5.10;3.40;;;;;;;1.74;50.58;102116.38;105980;1254;60888;-78
2024/02/20 10:49:33;;;;;;;3.50;3.20;;;;;;;1.72;50.22;102111.04;105909;1254;74231;-78
2024/02/20 10:52:04;;;;;;;9.50;3.80;;;;;;;1.71;50.61;102108.28;105916;1254;65659;-78
2024/02/20 10:54:33;;;;;;;16.60;8.10;;;;;;;1.75;50.56;102106.73;106071;1255;72217;-78
2024/02/20 10:57:14;;;;;;;10.60;5.20;;;;;;;1.82;50.75;102100.86;105871;1255;60568;-77
2024/02/20 10:59:43;;;;;;;21.10;11.00;;;;;;;1.96;50.66;102096.56;105946;1255;60456;-77
2024/02/20 11:02:10;;;;;;;9.10;6.50;;;;;;;2.14;50.59;102094.13;105983;1257;73546;-78
2024/02/20 11:04:39;;;;;;;12.00;6.80;;;;;;;2.28;49.74;102092.38;105952;1257;64314;-77
2024/02/20 11:07:07;;;;;;;12.20;7.10;;;;;;;2.41;49.69;102091.14;106055;1254;75307;-77
2024/02/20 11:09:35;;;;;;;10.70;5.90;;;;;;;2.57;49.11;102086.96;105798;1258;60493;-77
2024/02/20 11:12:09;;;;;;;7.30;5.40;;;;;;;2.73;48.54;102087.77;105837;1254;60549;-78
2024/02/20 11:14:37;;;;;;;7.20;5.50;;;;;;;2.82;47.78;102086.69;109598;1253;75876;-77
2024/02/20 11:17:14;;;;;;;6.40;3.80;;;;;;;2.86;46.83;102087.36;109567;1252;61614;-78
2024/02/20 11:20:17;;;;;;;4.10;3.70;;;;;;;3.04;47.47;102084.69;109527;1253;73496;-77
2024/02/20 11:22:46;;;;;;;4.60;4.10;;;;;;;3.45;48.04;102085.31;109686;1253;59226;-78
2024/02/20 11:25:15;;;;;;;9.40;6.20;;;;;;;3.78;47.46;102087.84;109733;1253;58138;-77
2024/02/20 11:27:48;;;;;;;7.10;4.40;;;;;;;3.93;45.59;102092.90;109583;1253;74187;-77